createdAt,value
2023-10-11T00:02:06.947Z,100576.84
2023-10-11T00:04:35.508Z,100578.81
2023-10-11T00:07:05.248Z,100582.84
2023-10-11T00:09:36.876Z,100582.06
2023-10-11T00:12:13.086Z,100581.69
2023-10-11T00:14:44.085Z,100584.69
2023-10-11T00:17:12.855Z,100568.78
2023-10-11T00:19:41.601Z,100577.78
2023-10-11T00:22:10.195Z,100576.66
2023-10-11T00:24:39.191Z,100567.66
2023-10-11T00:27:11.972Z,100566.47
2023-10-11T00:29:40.765Z,100567.66
2023-10-11T00:32:10.702Z,100559.94
2023-10-11T00:34:39.677Z,100570.19
2023-10-11T00:37:10.831Z,100565.34
2023-10-11T00:39:39.493Z,100563.28
2023-10-11T00:42:11.275Z,100556.47
2023-10-11T00:44:41.574Z,100568.47
2023-10-11T00:47:10.548Z,100554.28
2023-10-11T00:49:41.392Z,100558.41
2023-10-11T00:52:10.065Z,100557.25
2023-10-11T00:54:44.277Z,100553.78
2023-10-11T00:57:16.996Z,100565.53
2023-10-11T00:59:45.919Z,100548.81
2023-10-11T01:02:16.133Z,100553.06
2023-10-11T01:05:07.508Z,100556.03
2023-10-11T01:07:39.998Z,100552.84
2023-10-11T01:10:10.494Z,100543.84
2023-10-11T01:12:41.202Z,100541.09
2023-10-11T01:15:13.021Z,100531.19
2023-10-11T01:17:41.817Z,100541.34
2023-10-11T01:20:14.510Z,100544.56
2023-10-11T01:22:45.320Z,100533.50
2023-10-11T01:25:20.087Z,100542.13
2023-10-11T01:28:06.899Z,100529.81
2023-10-11T01:30:35.626Z,100535.94
2023-10-11T01:33:06.908Z,100532.56
2023-10-11T01:35:37.878Z,100526.16
2023-10-11T01:38:08.382Z,100524.50
2023-10-11T01:40:41.215Z,100526.97
2023-10-11T01:43:09.854Z,100526.03
2023-10-11T01:45:40.731Z,100519.00
2023-10-11T01:48:10.593Z,100511.44
2023-10-11T01:50:39.259Z,100522.25
2023-10-11T01:53:09.904Z,100513.25
2023-10-11T01:55:40.626Z,100513.59
2023-10-11T01:58:13.886Z,100514.28
2023-10-11T02:00:42.747Z,100507.13
2023-10-11T02:03:15.240Z,100511.88
2023-10-11T02:05:45.349Z,100507.50
2023-10-11T02:08:18.352Z,100501.75
2023-10-11T02:10:47.074Z,100502.44
2023-10-11T02:13:16.535Z,100502.66
2023-10-11T02:15:48.789Z,100501.75
2023-10-11T02:18:17.580Z,100506.34
2023-10-11T02:20:47.188Z,100499.41
2023-10-11T02:23:18.604Z,100505.41
2023-10-11T02:25:47.553Z,100498.03
2023-10-11T02:28:16.687Z,100507.84
2023-10-11T02:30:45.432Z,100502.06
2023-10-11T02:33:14.147Z,100483.31
2023-10-11T02:35:56.611Z,100491.47
2023-10-11T02:38:27.089Z,100498.75
2023-10-11T02:40:58.764Z,100491.34
2023-10-11T02:43:28.462Z,100495.94
2023-10-11T02:46:00.499Z,100495.47
2023-10-11T02:48:29.772Z,100498.50
2023-10-11T02:50:59.815Z,100491.09
2023-10-11T02:53:29.756Z,100494.50
2023-10-11T02:56:04.315Z,100494.19
2023-10-11T02:58:35.263Z,100496.78
2023-10-11T03:01:19.889Z,100488.59
2023-10-11T03:03:50.324Z,100479.41
2023-10-11T03:06:20.527Z,100483.31
2023-10-11T03:08:52.773Z,100475.84
2023-10-11T03:11:21.682Z,100481.94
2023-10-11T03:13:50.317Z,100477.88
2023-10-11T03:16:19.652Z,100479.59
2023-10-11T03:18:48.742Z,100471.50
2023-10-11T03:21:19.020Z,100475.69
2023-10-11T03:23:55.281Z,100480.41
2023-10-11T03:26:32.307Z,100485.44
2023-10-11T03:29:04.821Z,100489.00
2023-10-11T03:31:35.529Z,100487.59
2023-10-11T03:34:11.684Z,100483.81
2023-10-11T03:36:50.726Z,100480.44
2023-10-11T03:39:29.791Z,100474.63
2023-10-11T03:42:08.227Z,100474.38
2023-10-11T03:44:37.931Z,100467.94
2023-10-11T03:47:09.355Z,100464.28
2023-10-11T03:49:50.782Z,100473.44
2023-10-11T03:52:23.796Z,100468.13
2023-10-11T03:55:02.462Z,100469.28
2023-10-11T03:57:36.358Z,100476.19
2023-10-11T04:00:19.992Z,100467.13
2023-10-11T04:02:49.063Z,100474.25
2023-10-11T04:05:17.756Z,100472.84
2023-10-11T04:07:46.549Z,100469.75
2023-10-11T04:10:21.723Z,100472.22
2023-10-11T04:12:50.450Z,100471.34
2023-10-11T04:15:25.874Z,100465.09
2023-10-11T04:17:56.830Z,100474.31
2023-10-11T04:20:34.154Z,100474.53
2023-10-11T04:23:11.564Z,100478.44
2023-10-11T04:25:44.581Z,100472.53
2023-10-11T04:28:13.714Z,100465.94
2023-10-11T04:30:43.156Z,100459.66
2023-10-11T04:33:13.784Z,100455.97
2023-10-11T04:35:46.320Z,100460.69
2023-10-11T04:38:15.102Z,100453.56
2023-10-11T04:40:51.536Z,100462.22
2023-10-11T04:43:26.110Z,100465.09
2023-10-11T04:45:57.462Z,100462.34
2023-10-11T04:48:31.953Z,100462.53
2023-10-11T04:51:08.730Z,100461.38
2023-10-11T04:53:55.351Z,100457.94
2023-10-11T04:56:44.930Z,100469.69
2023-10-11T04:59:18.859Z,100462.06
2023-10-11T05:01:59.542Z,100464.84
2023-10-11T05:04:30.022Z,100467.94
2023-10-11T05:06:59.021Z,100475.63
2023-10-11T05:09:39.217Z,100472.41
2023-10-11T05:12:11.700Z,100464.59
2023-10-11T05:14:57.366Z,100458.16
2023-10-11T05:17:39.991Z,100454.13
2023-10-11T05:20:24.295Z,100452.84
2023-10-11T05:23:03.688Z,100463.22
2023-10-11T05:25:41.958Z,100461.66
2023-10-11T05:28:31.533Z,100465.16
2023-10-11T05:31:23.764Z,100436.03
2023-10-11T05:34:09.981Z,100448.81
2023-10-11T05:36:49.873Z,100452.97
2023-10-11T05:39:36.255Z,100461.59
2023-10-11T05:42:22.661Z,100466.31
2023-10-11T05:45:10.416Z,100455.94
2023-10-11T05:48:01.831Z,100452.31
2023-10-11T05:50:48.581Z,100456.00
2023-10-11T05:53:17.355Z,100445.66
2023-10-11T05:55:45.961Z,100454.41
2023-10-11T05:58:14.918Z,100459.78
2023-10-11T06:00:50.987Z,100450.03
2023-10-11T06:03:19.763Z,100450.53
2023-10-11T06:05:52.532Z,100435.25
2023-10-11T06:08:25.126Z,100433.28
2023-10-11T06:10:57.580Z,100440.53
2023-10-11T06:13:26.281Z,100435.16
2023-10-11T06:16:03.037Z,100425.28
2023-10-11T06:18:57.174Z,100432.53
2023-10-11T06:21:33.296Z,100438.88
2023-10-11T06:24:05.179Z,100438.75
2023-10-11T06:26:54.934Z,100443.72
2023-10-11T06:29:27.296Z,100443.69
2023-10-11T06:32:09.267Z,100451.50
2023-10-11T06:34:46.390Z,100452.03
2023-10-11T06:37:18.328Z,100459.41
2023-10-11T06:40:05.754Z,100468.56
2023-10-11T06:42:34.532Z,100473.19
2023-10-11T06:45:08.148Z,100467.81
2023-10-11T06:47:38.327Z,100466.44
2023-10-11T06:50:12.952Z,100469.31
2023-10-11T06:52:45.539Z,100482.47
2023-10-11T06:55:18.047Z,100479.16
2023-10-11T06:57:51.916Z,100472.72
2023-10-11T07:00:26.162Z,100462.94
2023-10-11T07:03:08.239Z,100477.47
2023-10-11T07:05:47.387Z,100476.69
2023-10-11T07:08:20.007Z,100467.06
2023-10-11T07:11:02.228Z,100463.56
2023-10-11T07:13:50.492Z,100470.31
2023-10-11T07:16:21.253Z,100465.38
2023-10-11T07:18:55.495Z,100469.66
2023-10-11T07:21:27.412Z,100474.94
2023-10-11T07:24:05.874Z,100465.41
2023-10-11T07:26:48.559Z,100470.97
2023-10-11T07:29:21.830Z,100462.88
2023-10-11T07:31:50.384Z,100463.03
2023-10-11T07:34:22.123Z,100471.09
2023-10-11T07:36:51.697Z,100457.00
2023-10-11T07:39:28.564Z,100468.31
2023-10-11T07:42:09.842Z,100465.69
2023-10-11T07:44:40.173Z,100453.13
2023-10-11T07:47:16.820Z,100462.84
2023-10-11T07:49:51.745Z,100459.44
2023-10-11T07:52:21.508Z,100473.31
2023-10-11T07:54:53.104Z,100467.69
2023-10-11T07:57:46.055Z,100470.16
2023-10-11T08:00:19.940Z,100485.97
2023-10-11T08:02:57.761Z,100477.16
2023-10-11T08:05:32.696Z,100481.97
2023-10-11T08:08:04.345Z,100487.06
2023-10-11T08:10:36.061Z,100488.31
2023-10-11T08:13:05.335Z,100488.31
2023-10-11T08:15:39.806Z,100469.16
2023-10-11T08:18:09.766Z,100465.94
2023-10-11T08:20:39.810Z,100492.09
2023-10-11T08:23:09.550Z,100493.06
2023-10-11T08:25:42.044Z,100490.94
2023-10-11T08:28:14.022Z,100499.34
2023-10-11T08:30:46.909Z,100488.03
2023-10-11T08:33:16.484Z,100493.44
2023-10-11T08:35:49.697Z,100487.47
2023-10-11T08:38:20.072Z,100480.13
2023-10-11T08:40:51.690Z,100486.41
2023-10-11T08:43:20.603Z,100470.53
2023-10-11T08:45:51.585Z,100478.38
2023-10-11T08:48:22.074Z,100483.47
2023-10-11T08:50:55.254Z,100484.88
2023-10-11T08:53:25.549Z,100478.28
2023-10-11T08:55:59.873Z,100490.84
2023-10-11T08:58:30.043Z,100477.03
2023-10-11T09:01:00.289Z,100471.69
2023-10-11T09:03:33.399Z,100469.66
2023-10-11T09:06:24.778Z,100494.59
2023-10-11T09:08:53.768Z,100495.44
2023-10-11T09:11:30.769Z,100500.72
2023-10-11T09:14:13.924Z,100498.47
2023-10-11T09:16:58.390Z,100499.44
2023-10-11T09:19:27.325Z,100490.81
2023-10-11T09:22:04.970Z,100484.66
2023-10-11T09:24:44.866Z,100483.81
2023-10-11T09:27:19.681Z,100478.97
2023-10-11T09:29:52.058Z,100476.44
2023-10-11T09:32:28.492Z,100475.31
2023-10-11T09:34:57.990Z,100473.00
2023-10-11T09:37:33.175Z,100472.22
2023-10-11T09:40:11.994Z,100460.88
2023-10-11T09:42:44.987Z,100479.09
2023-10-11T09:45:18.848Z,100453.88
2023-10-11T09:47:55.699Z,100473.75
2023-10-11T09:50:27.685Z,100472.59
2023-10-11T09:53:01.948Z,100475.84
2023-10-11T09:55:38.424Z,100479.06
2023-10-11T09:58:18.506Z,100487.34
2023-10-11T10:00:54.934Z,100483.69
2023-10-11T10:04:06.874Z,100485.38
2023-10-11T10:06:35.736Z,100485.94
2023-10-11T10:09:25.773Z,100483.13
2023-10-11T10:12:22.809Z,100478.59
2023-10-11T10:15:04.186Z,100494.84
2023-10-11T10:17:33.496Z,100486.00
2023-10-11T10:20:46.322Z,100483.47
2023-10-11T10:23:30.927Z,100504.38
2023-10-11T10:26:39.515Z,100490.25
2023-10-11T10:29:13.353Z,100486.72
2023-10-11T10:32:09.941Z,100488.75
2023-10-11T10:35:37.726Z,100485.03
2023-10-11T10:38:10.901Z,100487.03
2023-10-11T10:40:44.142Z,100482.28
2023-10-11T10:43:29.278Z,100480.69
2023-10-11T10:46:00.874Z,100469.66
2023-10-11T10:48:32.676Z,100468.03
2023-10-11T10:51:05.106Z,100458.06
2023-10-11T10:53:40.641Z,100459.97
2023-10-11T10:56:20.648Z,100452.56
2023-10-11T10:58:49.368Z,100444.56
2023-10-11T11:01:28.209Z,100456.72
2023-10-11T11:03:59.718Z,100442.78
2023-10-11T11:06:57.653Z,100467.41
2023-10-11T11:09:28.287Z,100471.88
2023-10-11T11:12:09.745Z,100465.72
2023-10-11T11:14:39.318Z,100455.69
2023-10-11T11:17:11.164Z,100461.31
2023-10-11T11:19:39.223Z,100463.59
2023-10-11T11:22:13.157Z,100463.38
2023-10-11T11:24:42.984Z,100462.97
2023-10-11T11:27:19.194Z,100456.31
2023-10-11T11:29:49.210Z,100465.66
2023-10-11T11:32:19.554Z,100447.53
2023-10-11T11:35:01.667Z,100449.41
2023-10-11T11:37:31.100Z,100462.72
2023-10-11T11:40:19.668Z,100451.59
2023-10-11T11:42:48.930Z,100451.66
2023-10-11T11:45:18.622Z,100450.28
2023-10-11T11:47:57.353Z,100446.81
2023-10-11T11:50:28.348Z,100445.63
2023-10-11T11:52:58.867Z,100446.84
2023-10-11T11:55:28.663Z,100445.59
2023-10-11T11:57:57.139Z,100454.88
2023-10-11T12:00:40.586Z,100456.28
2023-10-11T12:03:10.472Z,100460.19
2023-10-11T12:05:42.158Z,100450.44
2023-10-11T12:08:19.676Z,100457.56
2023-10-11T12:11:06.343Z,100442.22
2023-10-11T12:13:35.094Z,100445.25
2023-10-11T12:16:10.382Z,100434.34
2023-10-11T12:18:40.522Z,100435.22
2023-10-11T12:21:13.204Z,100432.66
2023-10-11T12:23:47.678Z,100425.84
2023-10-11T12:26:18.970Z,100420.34
2023-10-11T12:28:48.003Z,100421.63
2023-10-11T12:31:18.092Z,100407.56
2023-10-11T12:33:48.567Z,100410.44
2023-10-11T12:36:21.758Z,100409.56
2023-10-11T12:38:50.956Z,100401.06
2023-10-11T12:41:19.779Z,100397.31
2023-10-11T12:43:50.522Z,100395.06
2023-10-11T12:46:21.165Z,100383.53
2023-10-11T12:48:57.083Z,100381.75
2023-10-11T12:51:28.883Z,100372.06
2023-10-11T12:54:17.114Z,100378.22
2023-10-11T12:56:46.101Z,100375.88
2023-10-11T12:59:14.887Z,100376.56
2023-10-11T13:01:51.217Z,100390.47
2023-10-11T13:04:25.457Z,100385.66
2023-10-11T13:06:54.593Z,100389.19
2023-10-11T13:09:47.057Z,100390.47
2023-10-11T13:12:18.974Z,100378.06
2023-10-11T13:14:52.402Z,100370.19
2023-10-11T13:17:21.139Z,100365.44
2023-10-11T13:19:52.351Z,100365.19
2023-10-11T13:22:21.131Z,100362.91
2023-10-11T13:24:50.093Z,100368.25
2023-10-11T13:27:23.198Z,100359.44
2023-10-11T13:29:52.159Z,100367.69
2023-10-11T13:32:20.917Z,100363.56
2023-10-11T13:34:53.366Z,100355.88
2023-10-11T13:37:23.296Z,100362.56
2023-10-11T13:39:51.876Z,100357.38
2023-10-11T13:42:20.496Z,100356.19
2023-10-11T13:44:49.078Z,100353.22
2023-10-11T13:47:18.212Z,100352.50
2023-10-11T13:49:49.031Z,100352.31
2023-10-11T13:52:21.919Z,100344.84
2023-10-11T13:54:53.275Z,100349.91
2023-10-11T13:57:23.717Z,100339.13
2023-10-11T13:59:54.517Z,100342.38
2023-10-11T14:02:37.867Z,100341.34
2023-10-11T14:05:16.189Z,100352.63
2023-10-11T14:07:52.207Z,100343.25
2023-10-11T14:10:24.043Z,100342.56
2023-10-11T14:12:53.396Z,100349.22
2023-10-11T14:15:23.836Z,100336.06
2023-10-11T14:17:53.882Z,100330.00
2023-10-11T14:20:23.642Z,100327.63
2023-10-11T14:22:55.078Z,100314.03
2023-10-11T14:25:25.870Z,100330.00
2023-10-11T14:27:54.666Z,100318.44
2023-10-11T14:30:24.829Z,100324.41
2023-10-11T14:32:53.643Z,100321.94
2023-10-11T14:35:22.675Z,100314.75
2023-10-11T14:37:51.657Z,100303.59
2023-10-11T14:40:25.786Z,100308.34
2023-10-11T14:42:54.431Z,100295.19
2023-10-11T14:45:23.788Z,100303.50
2023-10-11T14:47:54.291Z,100304.25
2023-10-11T14:50:24.361Z,100296.38
2023-10-11T14:52:53.628Z,100298.06
2023-10-11T14:55:25.610Z,100294.84
2023-10-11T14:57:55.037Z,100292.09
2023-10-11T15:00:24.959Z,100286.13
2023-10-11T15:02:55.801Z,100286.88
2023-10-11T15:05:28.264Z,100278.88
2023-10-11T15:07:57.510Z,100281.22
2023-10-11T15:10:27.946Z,100281.22
2023-10-11T15:12:57.320Z,100279.22
2023-10-11T15:15:28.262Z,100283.59
2023-10-11T15:18:02.381Z,100279.59
2023-10-11T15:20:33.499Z,100271.13
2023-10-11T15:23:02.575Z,100277.09
2023-10-11T15:25:32.991Z,100269.13
2023-10-11T15:28:02.221Z,100274.63
2023-10-11T15:30:31.128Z,100261.84
2023-10-11T15:33:01.760Z,100255.41
2023-10-11T15:35:30.536Z,100244.94
2023-10-11T15:37:59.112Z,100254.44
2023-10-11T15:40:32.967Z,100256.28
2023-10-11T15:43:03.964Z,100247.84
2023-10-11T15:45:33.230Z,100245.41
2023-10-11T15:48:02.391Z,100246.91
2023-10-11T15:50:31.108Z,100246.00
2023-10-11T15:53:01.860Z,100257.94
2023-10-11T15:55:30.751Z,100257.16
2023-10-11T15:57:59.722Z,100243.09
2023-10-11T16:00:32.226Z,100244.22
2023-10-11T16:03:06.367Z,100248.22
2023-10-11T16:05:35.073Z,100254.47
2023-10-11T16:08:05.654Z,100260.75
2023-10-11T16:10:35.256Z,100251.59
2023-10-11T16:13:03.870Z,100246.78
2023-10-11T16:15:33.900Z,100254.31
2023-10-11T16:18:03.988Z,100246.19
2023-10-11T16:20:32.641Z,100245.31
2023-10-11T16:23:01.235Z,100250.97
2023-10-11T16:25:30.411Z,100242.84
2023-10-11T16:27:59.524Z,100245.91
2023-10-11T16:30:29.449Z,100241.84
2023-10-11T16:32:59.562Z,100231.88
2023-10-11T16:35:42.422Z,100238.53
2023-10-11T16:38:14.544Z,100243.25
2023-10-11T16:40:45.282Z,100232.81
2023-10-11T16:43:14.369Z,100229.63
2023-10-11T16:45:43.305Z,100237.47
2023-10-11T16:48:13.375Z,100241.44
2023-10-11T16:50:44.631Z,100251.72
2023-10-11T16:53:14.400Z,100236.59
2023-10-11T16:55:45.106Z,100233.44
2023-10-11T16:58:13.663Z,100242.09
2023-10-11T17:00:43.354Z,100240.25
2023-10-11T17:03:15.065Z,100242.97
2023-10-11T17:05:43.884Z,100233.44
2023-10-11T17:08:13.473Z,100236.97
2023-10-11T17:10:42.266Z,100235.75
2023-10-11T17:13:10.917Z,100238.16
2023-10-11T17:15:44.250Z,100236.44
2023-10-11T17:18:15.457Z,100231.22
2023-10-11T17:20:45.702Z,100240.28
2023-10-11T17:23:15.654Z,100240.28
2023-10-11T17:25:44.110Z,100240.22
2023-10-11T17:28:13.087Z,100231.91
2023-10-11T17:30:46.730Z,100236.16
2023-10-11T17:33:17.687Z,100236.66
2023-10-11T17:35:46.749Z,100235.47
2023-10-11T17:38:16.335Z,100235.75
2023-10-11T17:40:46.998Z,100237.41
2023-10-11T17:43:20.116Z,100236.22
2023-10-11T17:45:49.039Z,100238.97
2023-10-11T17:48:19.188Z,100240.19
2023-10-11T17:50:47.855Z,100236.13
2023-10-11T17:53:16.426Z,100236.72
2023-10-11T17:55:58.409Z,100238.47
2023-10-11T17:58:28.340Z,100231.94
2023-10-11T18:00:58.856Z,100228.31
2023-10-11T18:03:29.007Z,100222.06
2023-10-11T18:05:57.871Z,100229.59
2023-10-11T18:08:26.565Z,100237.94
2023-10-11T18:10:59.697Z,100235.84
2023-10-11T18:13:28.590Z,100242.00
2023-10-11T18:15:57.167Z,100238.38
2023-10-11T18:18:26.462Z,100223.66
2023-10-11T18:20:56.368Z,100233.25
2023-10-11T18:23:25.154Z,100216.94
2023-10-11T18:25:55.147Z,100225.53
2023-10-11T18:28:24.973Z,100218.31
2023-10-11T18:30:53.549Z,100219.09
2023-10-11T18:33:22.321Z,100229.84
2023-10-11T18:35:51.239Z,100237.44
2023-10-11T18:38:21.543Z,100239.72
2023-10-11T18:40:50.238Z,100232.13
2023-10-11T18:43:19.135Z,100244.75
2023-10-11T18:45:49.218Z,100241.31
2023-10-11T18:48:18.533Z,100240.50
2023-10-11T18:50:47.404Z,100252.56
2023-10-11T18:53:16.010Z,100243.78
2023-10-11T18:55:46.695Z,100239.09
2023-10-11T18:58:15.325Z,100242.94
2023-10-11T19:00:48.268Z,100249.22
2023-10-11T19:03:19.492Z,100240.91
2023-10-11T19:05:48.417Z,100254.69
2023-10-11T19:08:17.002Z,100254.78
2023-10-11T19:10:48.849Z,100263.81
2023-10-11T19:13:17.600Z,100274.19
2023-10-11T19:15:46.697Z,100268.13
2023-10-11T19:18:17.905Z,100274.75
2023-10-11T19:20:48.041Z,100272.53
2023-10-11T19:23:18.329Z,100277.66
2023-10-11T19:25:57.045Z,100284.81
2023-10-11T19:28:25.696Z,100286.22
2023-10-11T19:30:54.231Z,100282.28
2023-10-11T19:33:23.052Z,100276.94
2023-10-11T19:35:51.752Z,100282.06
2023-10-11T19:38:22.081Z,100270.50
2023-10-11T19:40:52.030Z,100260.13
2023-10-11T19:43:20.580Z,100261.22
2023-10-11T19:45:49.435Z,100260.66
2023-10-11T19:48:18.189Z,100251.53
2023-10-11T19:50:48.493Z,100253.38
2023-10-11T19:53:20.379Z,100261.03
2023-10-11T19:55:49.612Z,100245.91
2023-10-11T19:58:19.468Z,100243.03
2023-10-11T20:00:48.202Z,100238.75
2023-10-11T20:03:16.858Z,100233.72
2023-10-11T20:05:45.687Z,100226.47
2023-10-11T20:08:16.698Z,100223.28
2023-10-11T20:10:48.089Z,100223.78
2023-10-11T20:13:19.326Z,100217.34
2023-10-11T20:15:48.116Z,100211.75
2023-10-11T20:18:17.149Z,100216.72
2023-10-11T20:20:47.684Z,100216.38
2023-10-11T20:23:17.889Z,100214.69
2023-10-11T20:25:46.624Z,100215.34
2023-10-11T20:28:15.232Z,100220.97
2023-10-11T20:30:45.282Z,100212.56
2023-10-11T20:33:16.950Z,100214.97
2023-10-11T20:35:45.785Z,100214.41
2023-10-11T20:38:17.394Z,100213.53
2023-10-11T20:40:46.628Z,100224.00
2023-10-11T20:43:15.331Z,100215.75
2023-10-11T20:45:45.229Z,100222.91
2023-10-11T20:48:14.136Z,100224.63
2023-10-11T20:50:42.966Z,100223.63
2023-10-11T20:53:11.582Z,100230.84
2023-10-11T20:55:43.982Z,100223.78
2023-10-11T20:58:22.369Z,100232.75
2023-10-11T21:00:52.787Z,100222.91
2023-10-11T21:03:23.181Z,100226.63
2023-10-11T21:05:53.664Z,100218.50
2023-10-11T21:08:26.827Z,100220.56
2023-10-11T21:10:56.211Z,100221.81
2023-10-11T21:13:27.121Z,100215.75
2023-10-11T21:16:03.706Z,100216.19
2023-10-11T21:18:36.551Z,100222.44
2023-10-11T21:21:05.583Z,100216.69
2023-10-11T21:23:34.370Z,100218.94
2023-10-11T21:26:03.741Z,100216.19
2023-10-11T21:28:32.595Z,100224.34
2023-10-11T21:31:03.439Z,100230.03
2023-10-11T21:33:36.883Z,100231.50
2023-10-11T21:36:08.120Z,100231.44
2023-10-11T21:38:37.990Z,100217.72
2023-10-11T21:41:07.461Z,100219.38
2023-10-11T21:43:36.169Z,100224.13
2023-10-11T21:46:11.652Z,100224.84
2023-10-11T21:48:40.905Z,100223.94
2023-10-11T21:51:14.131Z,100229.13
2023-10-11T21:53:43.612Z,100227.16
2023-10-11T21:56:12.575Z,100222.44
2023-10-11T21:58:41.764Z,100215.75
2023-10-11T22:01:24.575Z,100219.81
2023-10-11T22:03:56.474Z,100210.50
2023-10-11T22:06:25.688Z,100203.72
2023-10-11T22:08:54.283Z,100206.69
2023-10-11T22:11:26.720Z,100194.94
2023-10-11T22:13:57.638Z,100196.78
2023-10-11T22:16:27.994Z,100202.56
2023-10-11T22:18:59.795Z,100203.94
2023-10-11T22:21:28.840Z,100202.69
2023-10-11T22:23:57.365Z,100201.97
2023-10-11T22:26:26.360Z,100192.84
2023-10-11T22:28:55.056Z,100197.94
2023-10-11T22:31:24.020Z,100201.50
2023-10-11T22:33:55.937Z,100193.88
2023-10-11T22:36:28.004Z,100204.44
2023-10-11T22:38:58.727Z,100200.41
2023-10-11T22:41:27.268Z,100197.75
2023-10-11T22:43:55.929Z,100195.69
2023-10-11T22:46:25.985Z,100201.25
2023-10-11T22:48:58.848Z,100206.41
2023-10-11T22:51:29.246Z,100201.69
2023-10-11T22:54:01.458Z,100196.94
2023-10-11T22:56:31.799Z,100206.34
2023-10-11T22:59:04.576Z,100206.41
2023-10-11T23:01:33.851Z,100208.16
2023-10-11T23:04:04.382Z,100215.31
2023-10-11T23:06:34.118Z,100218.81
2023-10-11T23:09:04.828Z,100214.84
2023-10-11T23:11:37.449Z,100217.94
2023-10-11T23:14:07.012Z,100207.31
2023-10-11T23:16:37.889Z,100218.06
2023-10-11T23:19:21.061Z,100199.09
2023-10-11T23:21:52.448Z,100199.84
2023-10-11T23:24:32.434Z,100199.97
2023-10-11T23:27:02.437Z,100204.22
2023-10-11T23:29:34.759Z,100215.81
2023-10-11T23:32:04.195Z,100222.59
2023-10-11T23:34:34.560Z,100224.22
2023-10-11T23:37:03.801Z,100229.31
2023-10-11T23:39:35.711Z,100225.75
2023-10-11T23:42:15.737Z,100231.22
2023-10-11T23:44:44.614Z,100233.09
2023-10-11T23:47:23.672Z,100213.69
2023-10-11T23:49:56.591Z,100224.13
2023-10-11T23:52:28.665Z,100215.38
2023-10-11T23:55:04.981Z,100217.06
2023-10-11T23:57:36.967Z,100206.41
